Time,TemperatureF,DewpointF,PressureIn,WindDirection,WindDirectionDegrees,WindSpeedMPH,WindSpeedGustMPH,Humidity,HourlyPrecipIn,Conditions,Clouds,dailyrainin,SoftwareType,DateUTC
2013-06-28 00:07:00,66.0,60.0,30.02,NNE,33,0.0,-999.0,81,-99.99,,,0.00,weatherlink.com 1.10,2013-06-28 07:07:00,
2013-06-28 00:22:00,67.1,61.0,30.02,NE,39,0.0,-999.0,80,-99.99,,,0.00,weatherlink.com 1.10,2013-06-28 07:22:00,
2013-06-28 00:37:00,66.4,60.0,30.02,NE,39,0.0,-999.0,81,-99.99,,,0.00,weatherlink.com 1.10,2013-06-28 07:37:00,
2013-06-28 00:52:00,65.5,60.0,30.02,NE,39,0.0,-999.0,82,-99.99,,,0.00,weatherlink.com 1.10,2013-06-28 07:52:00,
2013-06-28 01:07:00,65.8,60.0,30.02,NE,39,0.0,-999.0,80,-99.99,,,0.00,weatherlink.com 1.10,2013-06-28 08:07:00,
2013-06-28 01:22:00,66.4,60.0,30.02,NE,39,0.0,-999.0,79,-99.99,,,0.00,weatherlink.com 1.10,2013-06-28 08:22:00,
2013-06-28 01:37:00,66.3,60.0,30.02,NE,39,0.0,-999.0,80,-99.99,,,0.00,weatherlink.com 1.10,2013-06-28 08:37:00,
2013-06-28 01:52:00,66.1,60.0,30.02,NE,39,0.0,-999.0,80,-99.99,,,0.00,weatherlink.com 1.10,2013-06-28 08:52:00,
2013-06-28 02:07:00,64.5,60.0,30.02,NE,39,0.0,-999.0,85,-99.99,,,0.00,weatherlink.com 1.10,2013-06-28 09:07:00,
2013-06-28 02:22:00,62.7,60.0,30.02,NE,39,0.0,-999.0,90,-99.99,,,0.00,weatherlink.com 1.10,2013-06-28 09:22:00,
2013-06-28 02:37:00,61.6,59.0,30.02,NE,39,0.0,-999.0,92,-99.99,,,0.00,weatherlink.com 1.10,2013-06-28 09:37:00,
2013-06-28 02:52:00,61.2,60.0,30.02,NE,39,0.0,-999.0,94,-99.99,,,0.00,weatherlink.com 1.10,2013-06-28 09:52:00,
2013-06-28 03:07:00,61.2,60.0,30.01,NE,39,0.0,-999.0,95,-99.99,,,0.00,weatherlink.com 1.10,2013-06-28 10:07:00,
2013-06-28 03:22:00,61.0,60.0,30.01,NE,39,0.0,-999.0,95,-99.99,,,0.00,weatherlink.com 1.10,2013-06-28 10:22:00,
2013-06-28 03:37:00,60.9,60.0,30.01,NE,39,0.0,-999.0,96,-99.99,,,0.00,weatherlink.com 1.10,2013-06-28 10:37:00,
2013-06-28 03:52:00,61.0,60.0,30.01,NE,39,0.0,-999.0,96,-99.99,,,0.00,weatherlink.com 1.10,2013-06-28 10:52:00,
2013-06-28 04:07:00,61.3,60.0,30.01,NE,39,0.0,-999.0,95,-99.99,,,0.00,weatherlink.com 1.10,2013-06-28 11:07:00,
2013-06-28 04:22:00,61.6,60.0,30.01,NE,39,0.0,-999.0,94,-99.99,,,0.00,weatherlink.com 1.10,2013-06-28 11:22:00,
2013-06-28 04:37:00,61.8,60.0,30.01,NE,39,0.0,-999.0,93,-99.99,,,0.00,weatherlink.com 1.10,2013-06-28 11:37:00,
2013-06-28 04:52:00,61.5,60.0,30.01,NE,39,0.0,-999.0,94,-99.99,,,0.00,weatherlink.com 1.10,2013-06-28 11:52:00,
2013-06-28 05:07:00,61.5,60.0,30.01,NE,39,0.0,-999.0,94,-99.99,,,0.00,weatherlink.com 1.10,2013-06-28 12:07:00,
2013-06-28 05:22:00,61.6,60.0,30.00,NE,39,0.0,-999.0,93,-99.99,,,0.00,weatherlink.com 1.10,2013-06-28 12:22:00,
2013-06-28 05:37:00,61.6,60.0,30.00,NE,39,0.0,-999.0,93,-99.99,,,0.00,weatherlink.com 1.10,2013-06-28 12:37:00,
2013-06-28 05:52:00,62.0,60.0,30.00,NE,39,0.0,-999.0,93,-99.99,,,0.00,weatherlink.com 1.10,2013-06-28 12:52:00,
2013-06-28 06:07:00,61.8,60.0,30.00,NE,39,0.0,-999.0,93,-99.99,,,0.00,weatherlink.com 1.10,2013-06-28 13:07:00,
2013-06-28 06:22:00,62.1,60.0,30.00,NE,39,0.0,-999.0,93,-99.99,,,0.00,weatherlink.com 1.10,2013-06-28 13:22:00,
2013-06-28 06:37:00,62.3,60.0,30.01,NE,39,0.0,-999.0,92,-99.99,,,0.00,weatherlink.com 1.10,2013-06-28 13:37:00,
2013-06-28 06:52:00,62.6,60.0,30.01,NE,39,0.0,-999.0,92,-99.99,,,0.00,weatherlink.com 1.10,2013-06-28 13:52:00,
2013-06-28 07:07:00,62.9,61.0,30.00,NE,39,0.0,-999.0,92,-99.99,,,0.00,weatherlink.com 1.10,2013-06-28 14:07:00,
2013-06-28 07:22:00,62.7,60.0,30.00,NE,39,0.0,-999.0,91,-99.99,,,0.00,weatherlink.com 1.10,2013-06-28 14:22:00,
2013-06-28 07:37:00,63.1,61.0,30.01,NE,39,0.0,-999.0,91,-99.99,,,0.00,weatherlink.com 1.10,2013-06-28 14:37:00,
2013-06-28 07:52:00,63.9,61.0,30.00,NE,39,0.0,-999.0,90,-99.99,,,0.00,weatherlink.com 1.10,2013-06-28 14:52:00,
2013-06-28 08:07:00,64.8,62.0,30.01,NE,39,0.0,-999.0,89,-99.99,,,0.00,weatherlink.com 1.10,2013-06-28 15:07:00,
2013-06-28 08:22:00,66.8,62.0,30.00,NE,40,0.0,-999.0,84,-99.99,,,0.00,weatherlink.com 1.10,2013-06-28 15:22:00,
2013-06-28 08:37:00,69.1,63.0,30.00,NE,39,0.0,-999.0,81,-99.99,,,0.00,weatherlink.com 1.10,2013-06-28 15:37:00,
2013-06-28 08:53:00,70.1,63.0,30.00,NE,40,0.0,-999.0,78,-99.99,,,0.00,weatherlink.com 1.10,2013-06-28 15:53:00,
2013-06-28 09:08:00,70.8,63.0,30.00,NNE,14,0.0,-999.0,77,-99.99,,,0.00,weatherlink.com 1.10,2013-06-28 16:08:00,
2013-06-28 09:23:00,71.5,64.0,30.00,NNE,15,0.0,-999.0,77,-99.99,,,0.00,weatherlink.com 1.10,2013-06-28 16:23:00,
2013-06-28 09:38:00,71.6,65.0,30.00,SW,232,0.0,-999.0,79,-99.99,,,0.00,weatherlink.com 1.10,2013-06-28 16:38:00,
2013-06-28 09:53:00,73.0,65.0,29.99,SE,128,0.0,-999.0,77,-99.99,,,0.00,weatherlink.com 1.10,2013-06-28 16:53:00,
2013-06-28 10:08:00,74.4,65.0,29.99,WSW,239,0.0,-999.0,72,-99.99,,,0.00,weatherlink.com 1.10,2013-06-28 17:08:00,
2013-06-28 10:23:00,75.1,65.0,29.99,NW,313,0.0,-999.0,71,-99.99,,,0.00,weatherlink.com 1.10,2013-06-28 17:23:00,
2013-06-28 10:38:00,76.1,66.0,29.99,NE,47,0.0,-999.0,71,-99.99,,,0.00,weatherlink.com 1.10,2013-06-28 17:38:00,
2013-06-28 10:53:00,77.2,68.0,29.99,SW,232,0.0,-999.0,72,-99.99,,,0.00,weatherlink.com 1.10,2013-06-28 17:53:00,
2013-06-28 11:08:00,77.9,69.0,29.99,SSE,167,0.0,-999.0,73,-99.99,,,0.00,weatherlink.com 1.10,2013-06-28 18:08:00,
2013-06-28 11:23:00,77.9,67.0,29.99,NNE,17,0.0,-999.0,68,-99.99,,,0.00,weatherlink.com 1.10,2013-06-28 18:23:00,
2013-06-28 11:38:00,79.0,68.0,29.99,ENE,77,1.0,-999.0,68,-99.99,,,0.00,weatherlink.com 1.10,2013-06-28 18:38:00,
2013-06-28 11:53:00,79.6,69.0,29.98,SSW,211,0.0,-999.0,69,-99.99,,,0.00,weatherlink.com 1.10,2013-06-28 18:53:00,
2013-06-28 12:08:00,80.1,68.0,29.98,WSW,238,0.0,-999.0,67,-99.99,,,0.00,weatherlink.com 1.10,2013-06-28 19:08:00,
2013-06-28 12:23:00,81.4,67.0,29.97,WSW,256,0.0,-999.0,61,-99.99,,,0.00,weatherlink.com 1.10,2013-06-28 19:23:00,
2013-06-28 12:38:00,81.8,65.0,29.97,SE,130,0.0,-999.0,56,-99.99,,,0.00,weatherlink.com 1.10,2013-06-28 19:38:00,
2013-06-28 12:53:00,82.4,65.0,29.97,WSW,248,0.0,-999.0,55,-99.99,,,0.00,weatherlink.com 1.10,2013-06-28 19:53:00,
2013-06-28 13:08:00,83.2,66.0,29.97,WNW,296,0.0,-999.0,56,-99.99,,,0.00,weatherlink.com 1.10,2013-06-28 20:08:00,
2013-06-28 13:23:00,83.6,66.0,29.96,NNE,15,0.0,-999.0,55,-99.99,,,0.00,weatherlink.com 1.10,2013-06-28 20:23:00,
2013-06-28 13:38:00,84.5,65.0,29.96,NW,315,0.0,-999.0,52,-99.99,,,0.00,weatherlink.com 1.10,2013-06-28 20:38:00,
2013-06-28 13:52:00,85.3,67.0,29.96,East,100,0.0,-999.0,54,-99.99,,,0.00,weatherlink.com 1.10,2013-06-28 20:52:00,
2013-06-28 14:08:00,85.5,68.0,29.95,NNE,22,0.0,-999.0,57,-99.99,,,0.00,weatherlink.com 1.10,2013-06-28 21:08:00,
2013-06-28 14:23:00,85.5,67.0,29.94,NE,36,0.0,-999.0,54,-99.99,,,0.00,weatherlink.com 1.10,2013-06-28 21:23:00,
2013-06-28 14:39:00,85.7,67.0,29.94,SSE,163,0.0,-999.0,54,-99.99,,,0.00,weatherlink.com 1.10,2013-06-28 21:39:00,
2013-06-28 14:52:00,86.5,67.0,29.94,East,100,0.0,-999.0,52,-99.99,,,0.00,weatherlink.com 1.10,2013-06-28 21:52:00,
2013-06-28 15:08:00,86.5,65.0,29.94,SW,230,0.0,-999.0,48,-99.99,,,0.00,weatherlink.com 1.10,2013-06-28 22:08:00,
2013-06-28 15:23:00,87.0,66.0,29.94,NE,40,3.0,-999.0,49,-99.99,,,0.00,weatherlink.com 1.10,2013-06-28 22:23:00,
2013-06-28 15:37:00,87.0,68.0,29.93,WNW,285,0.0,-999.0,54,-99.99,,,0.00,weatherlink.com 1.10,2013-06-28 22:37:00,
2013-06-28 15:52:00,87.0,68.0,29.93,WSW,256,0.0,-999.0,53,-99.99,,,0.00,weatherlink.com 1.10,2013-06-28 22:52:00,
2013-06-28 16:08:00,87.2,66.0,29.93,WSW,258,1.0,-999.0,50,-99.99,,,0.00,weatherlink.com 1.10,2013-06-28 23:08:00,
2013-06-28 16:23:00,87.2,67.0,29.92,WSW,252,0.0,-999.0,51,-99.99,,,0.00,weatherlink.com 1.10,2013-06-28 23:23:00,
2013-06-28 16:38:00,87.2,65.0,29.92,SW,236,2.0,-999.0,47,-99.99,,,0.00,weatherlink.com 1.10,2013-06-28 23:38:00,
2013-06-28 16:53:00,86.7,63.0,29.92,West,266,0.0,-999.0,45,-99.99,,,0.00,weatherlink.com 1.10,2013-06-28 23:53:00,
2013-06-28 17:08:00,86.7,62.0,29.92,NW,309,1.0,-999.0,43,-99.99,,,0.00,weatherlink.com 1.10,2013-06-29 00:08:00,
2013-06-28 17:24:00,86.3,61.0,29.92,WSW,240,3.0,-999.0,43,-99.99,,,0.00,weatherlink.com 1.10,2013-06-29 00:24:00,
2013-06-28 17:38:00,85.7,61.0,29.92,WNW,295,0.0,-999.0,44,-99.99,,,0.00,weatherlink.com 1.10,2013-06-29 00:38:00,
2013-06-28 17:53:00,85.9,62.0,29.92,WNW,282,0.0,-999.0,44,-99.99,,,0.00,weatherlink.com 1.10,2013-06-29 00:53:00,
2013-06-28 18:08:00,85.3,60.0,29.92,NW,312,3.0,-999.0,43,-99.99,,,0.00,weatherlink.com 1.10,2013-06-29 01:08:00,
2013-06-28 18:23:00,84.9,61.0,29.92,NW,325,4.0,-999.0,44,-99.99,,,0.00,weatherlink.com 1.10,2013-06-29 01:23:00,
2013-06-28 18:38:00,83.8,59.0,29.91,WSW,242,11.0,-999.0,43,-99.99,,,0.00,weatherlink.com 1.10,2013-06-29 01:38:00,
2013-06-28 18:53:00,82.8,58.0,29.91,SSW,207,1.0,-999.0,43,-99.99,,,0.00,weatherlink.com 1.10,2013-06-29 01:53:00,
2013-06-28 19:09:00,82.6,58.0,29.92,West,269,3.0,-999.0,43,-99.99,,,0.00,weatherlink.com 1.10,2013-06-29 02:09:00,
2013-06-28 19:23:00,81.8,60.0,29.92,WSW,254,0.0,-999.0,47,-99.99,,,0.00,weatherlink.com 1.10,2013-06-29 02:23:00,
2013-06-28 19:37:00,81.4,60.0,29.92,WNW,298,0.0,-999.0,48,-99.99,,,0.00,weatherlink.com 1.10,2013-06-29 02:37:00,
2013-06-28 19:53:00,79.9,60.0,29.92,WSW,248,0.0,-999.0,50,-99.99,,,0.00,weatherlink.com 1.10,2013-06-29 02:53:00,
2013-06-28 20:07:00,78.3,60.0,29.92,WSW,256,1.0,-999.0,53,-99.99,,,0.00,weatherlink.com 1.10,2013-06-29 03:07:00,
2013-06-28 20:23:00,76.1,61.0,29.93,NW,323,0.0,-999.0,59,-99.99,,,0.00,weatherlink.com 1.10,2013-06-29 03:23:00,
2013-06-28 20:37:00,74.2,59.0,29.94,SW,227,0.0,-999.0,60,-99.99,,,0.00,weatherlink.com 1.10,2013-06-29 03:37:00,
2013-06-28 20:53:00,73.2,56.0,29.94,WSW,240,0.0,-999.0,56,-99.99,,,0.00,weatherlink.com 1.10,2013-06-29 03:53:00,
2013-06-28 21:09:00,72.5,56.0,29.94,West,261,0.0,-999.0,57,-99.99,,,0.00,weatherlink.com 1.10,2013-06-29 04:09:00,
2013-06-28 21:23:00,72.1,55.0,29.94,WSW,244,0.0,-999.0,55,-99.99,,,0.00,weatherlink.com 1.10,2013-06-29 04:23:00,
2013-06-28 21:38:00,71.8,54.0,29.94,WSW,244,0.0,-999.0,54,-99.99,,,0.00,weatherlink.com 1.10,2013-06-29 04:38:00,
2013-06-28 21:52:00,71.3,53.0,29.94,West,265,0.0,-999.0,52,-99.99,,,0.00,weatherlink.com 1.10,2013-06-29 04:52:00,
2013-06-28 22:07:00,71.6,54.0,29.95,East,90,2.0,-999.0,55,-99.99,,,0.00,weatherlink.com 1.10,2013-06-29 05:07:00,
2013-06-28 22:22:00,70.9,56.0,29.95,East,90,0.0,-999.0,59,-99.99,,,0.00,weatherlink.com 1.10,2013-06-29 05:22:00,
2013-06-28 22:38:00,70.6,55.0,29.95,East,90,0.0,-999.0,59,-99.99,,,0.00,weatherlink.com 1.10,2013-06-29 05:38:00,
2013-06-28 22:53:00,69.6,54.0,29.95,East,90,0.0,-999.0,59,-99.99,,,0.00,weatherlink.com 1.10,2013-06-29 05:53:00,
2013-06-28 23:08:00,68.9,54.0,29.96,East,90,0.0,-999.0,59,-99.99,,,0.00,weatherlink.com 1.10,2013-06-29 06:08:00,
2013-06-28 23:23:00,68.8,56.0,29.96,East,90,0.0,-999.0,63,-99.99,,,0.00,weatherlink.com 1.10,2013-06-29 06:23:00,
2013-06-28 23:38:00,67.4,55.0,29.97,East,90,0.0,-999.0,64,-99.99,,,0.00,weatherlink.com 1.10,2013-06-29 06:38:00,
2013-06-28 23:59:00,66.3,56.0,29.97,East,82,0.0,-999.0,69,-99.99,,,0.00,weatherlink.com 1.10,2013-06-29 06:59:00,